createdAt,value
2023-10-31T00:00:21.073Z,1.60
2023-10-31T00:02:48.760Z,1.55
2023-10-31T00:05:17.649Z,1.70
2023-10-31T00:07:46.014Z,1.23
2023-10-31T00:10:13.315Z,1.30
2023-10-31T00:12:41.073Z,1.33
2023-10-31T00:15:08.379Z,1.30
2023-10-31T00:17:35.601Z,1.73
2023-10-31T00:20:03.168Z,1.40
2023-10-31T00:22:30.433Z,1.30
2023-10-31T00:24:57.592Z,1.15
2023-10-31T00:27:24.881Z,1.60
2023-10-31T00:29:52.083Z,1.50
2023-10-31T00:32:19.321Z,1.40
2023-10-31T00:34:46.570Z,0.93
2023-10-31T00:37:13.740Z,1.50
2023-10-31T00:39:41.213Z,1.70
2023-10-31T00:42:09.283Z,1.55
2023-10-31T00:44:37.021Z,1.23
2023-10-31T00:47:06.512Z,1.20
2023-10-31T00:49:33.818Z,1.30
2023-10-31T00:52:01.168Z,1.10
2023-10-31T00:54:28.414Z,2.15
2023-10-31T00:56:55.603Z,1.20
2023-10-31T00:59:22.780Z,1.45
2023-10-31T01:01:50.263Z,1.17
2023-10-31T01:04:18.470Z,1.25
2023-10-31T01:06:45.761Z,1.70
2023-10-31T01:09:14.369Z,1.20
2023-10-31T01:11:41.563Z,1.20
2023-10-31T01:14:08.947Z,1.08
2023-10-31T01:16:36.292Z,0.98
2023-10-31T01:19:04.639Z,1.10
2023-10-31T01:21:31.809Z,1.00
2023-10-31T01:24:00.189Z,1.33
2023-10-31T01:26:27.436Z,1.23
2023-10-31T01:28:55.116Z,1.25
2023-10-31T01:31:22.406Z,2.28
2023-10-31T01:33:49.890Z,1.13
2023-10-31T01:36:19.310Z,1.35
2023-10-31T01:38:47.689Z,1.58
2023-10-31T01:41:14.941Z,1.25
2023-10-31T01:43:42.206Z,1.48
2023-10-31T01:46:10.646Z,1.58
2023-10-31T01:48:38.365Z,1.20
2023-10-31T01:51:06.141Z,1.08
2023-10-31T01:53:34.875Z,1.33
2023-10-31T01:56:04.050Z,0.90
2023-10-31T01:58:35.220Z,1.17
2023-10-31T02:01:02.783Z,1.20
2023-10-31T02:03:30.247Z,1.60
2023-10-31T02:05:58.804Z,1.30
2023-10-31T02:08:26.702Z,1.20
2023-10-31T02:10:53.909Z,1.08
2023-10-31T02:13:24.081Z,1.30
2023-10-31T02:15:51.377Z,1.35
2023-10-31T02:18:19.133Z,1.27
2023-10-31T02:20:46.319Z,1.08
2023-10-31T02:23:13.573Z,1.15
2023-10-31T02:25:40.832Z,1.15
2023-10-31T02:28:07.951Z,1.40
2023-10-31T02:30:36.224Z,1.65
2023-10-31T02:33:04.229Z,1.00
2023-10-31T02:35:31.530Z,1.25
2023-10-31T02:37:58.777Z,1.30
2023-10-31T02:40:25.973Z,1.35
2023-10-31T02:42:53.169Z,1.33
2023-10-31T02:45:20.440Z,1.42
2023-10-31T02:47:48.133Z,1.40
2023-10-31T02:50:15.521Z,1.65
2023-10-31T02:52:42.780Z,1.73
2023-10-31T02:55:10.057Z,1.55
2023-10-31T02:57:37.431Z,1.50
2023-10-31T03:00:05.713Z,1.10
2023-10-31T03:02:33.116Z,1.30
2023-10-31T03:05:00.409Z,1.05
2023-10-31T03:07:27.649Z,1.20
2023-10-31T03:09:55.542Z,1.73
2023-10-31T03:12:22.933Z,1.67
2023-10-31T03:14:50.072Z,1.50
2023-10-31T03:17:17.780Z,1.58
2023-10-31T03:19:46.195Z,1.50
2023-10-31T03:22:14.733Z,1.42
2023-10-31T03:24:41.899Z,1.40
2023-10-31T03:27:09.030Z,1.70
2023-10-31T03:29:37.176Z,1.63
2023-10-31T03:32:06.270Z,1.60
2023-10-31T03:34:33.618Z,1.60
2023-10-31T03:37:00.987Z,1.27
2023-10-31T03:39:28.497Z,1.40
2023-10-31T03:41:56.097Z,1.55
2023-10-31T03:44:25.552Z,1.40
2023-10-31T03:46:52.959Z,1.70
2023-10-31T03:49:20.163Z,1.55
2023-10-31T03:51:47.517Z,1.92
2023-10-31T03:54:15.222Z,1.90
2023-10-31T03:56:44.145Z,1.50
2023-10-31T03:59:11.663Z,1.65
2023-10-31T04:01:38.962Z,2.10
2023-10-31T04:04:06.600Z,2.05
2023-10-31T04:06:33.998Z,2.10
2023-10-31T04:09:01.508Z,2.03
2023-10-31T04:11:28.920Z,2.70
2023-10-31T04:13:56.128Z,1.92
2023-10-31T04:16:23.324Z,2.33
2023-10-31T04:18:50.527Z,2.10
2023-10-31T04:21:17.724Z,2.20
2023-10-31T04:23:45.202Z,2.50
2023-10-31T04:26:12.429Z,2.80
2023-10-31T04:28:40.660Z,2.53
2023-10-31T04:31:07.852Z,2.53
2023-10-31T04:33:34.994Z,2.45
2023-10-31T04:36:03.448Z,2.13
2023-10-31T04:38:30.661Z,2.65
2023-10-31T04:40:57.838Z,2.47
2023-10-31T04:43:25.032Z,2.90
2023-10-31T04:45:52.212Z,3.00
2023-10-31T04:48:19.647Z,3.13
2023-10-31T04:50:47.056Z,3.70
2023-10-31T04:53:14.335Z,3.08
2023-10-31T04:55:41.641Z,3.33
2023-10-31T04:58:08.868Z,2.80
2023-10-31T05:00:36.521Z,3.25
2023-10-31T05:03:04.256Z,2.75
2023-10-31T05:05:31.498Z,2.92
2023-10-31T05:07:59.384Z,3.22
2023-10-31T05:10:26.584Z,2.95
2023-10-31T05:12:54.091Z,2.70
2023-10-31T05:15:21.324Z,2.10
2023-10-31T05:17:48.982Z,2.58
2023-10-31T05:20:16.245Z,2.47
2023-10-31T05:22:43.595Z,2.28
2023-10-31T05:25:11.024Z,2.10
2023-10-31T05:27:38.261Z,2.50
2023-10-31T05:30:06.120Z,1.90
2023-10-31T05:32:33.334Z,2.40
2023-10-31T05:35:01.033Z,2.75
2023-10-31T05:37:28.383Z,2.03
2023-10-31T05:39:55.533Z,2.50
2023-10-31T05:42:22.715Z,2.70
2023-10-31T05:44:50.124Z,3.20
2023-10-31T05:47:17.345Z,2.40
2023-10-31T05:49:45.414Z,3.50
2023-10-31T05:52:12.656Z,2.60
2023-10-31T05:54:39.865Z,2.95
2023-10-31T05:57:07.046Z,2.75
2023-10-31T05:59:34.186Z,3.28
2023-10-31T06:02:01.504Z,2.78
2023-10-31T06:04:28.985Z,2.13
2023-10-31T06:06:56.198Z,3.15
2023-10-31T06:09:23.328Z,3.08
2023-10-31T06:11:50.478Z,3.08
2023-10-31T06:14:17.818Z,2.50
2023-10-31T06:16:45.587Z,2.38
2023-10-31T06:19:13.114Z,3.63
2023-10-31T06:21:41.124Z,2.90
2023-10-31T06:24:09.095Z,2.78
2023-10-31T06:26:36.404Z,3.40
2023-10-31T06:31:36.127Z,3.08
2023-10-31T06:34:03.947Z,2.63
2023-10-31T06:36:31.137Z,3.15
2023-10-31T06:38:58.367Z,2.50
2023-10-31T06:41:25.713Z,2.22
2023-10-31T06:43:52.935Z,2.20
2023-10-31T06:46:20.231Z,2.80
2023-10-31T06:48:47.489Z,2.90
2023-10-31T06:51:14.706Z,2.75
2023-10-31T06:53:41.931Z,2.83
2023-10-31T06:56:09.383Z,3.20
2023-10-31T06:58:36.592Z,3.13
2023-10-31T07:01:04.566Z,3.72
2023-10-31T07:03:31.853Z,3.55
2023-10-31T07:06:00.361Z,3.63
2023-10-31T07:08:31.078Z,3.00
2023-10-31T07:11:00.114Z,3.22
2023-10-31T07:13:28.877Z,2.60
2023-10-31T07:15:56.192Z,4.07
2023-10-31T07:18:23.398Z,2.53
2023-10-31T07:20:50.683Z,2.40
2023-10-31T07:23:17.877Z,2.00
2023-10-31T07:25:45.023Z,2.00
2023-10-31T07:28:12.280Z,2.28
2023-10-31T07:30:39.513Z,1.90
2023-10-31T07:33:06.809Z,2.08
2023-10-31T07:35:34.153Z,1.60
2023-10-31T07:38:01.365Z,2.33
2023-10-31T07:40:28.609Z,1.48
2023-10-31T07:42:55.915Z,1.83
2023-10-31T07:45:23.086Z,2.22
2023-10-31T07:47:50.277Z,1.17
2023-10-31T07:50:17.597Z,0.90
2023-10-31T07:52:46.691Z,1.08
2023-10-31T07:55:15.506Z,0.90
2023-10-31T07:57:42.844Z,1.27
2023-10-31T08:00:13.762Z,1.10
2023-10-31T08:02:41.067Z,1.08
2023-10-31T08:05:09.193Z,1.02
2023-10-31T08:07:36.529Z,1.00
2023-10-31T08:10:05.129Z,1.08
2023-10-31T08:12:32.421Z,1.17
2023-10-31T08:15:02.303Z,1.00
2023-10-31T08:17:30.912Z,1.27
2023-10-31T08:19:58.220Z,1.10
2023-10-31T08:22:25.446Z,1.33
2023-10-31T08:24:52.925Z,1.10
2023-10-31T08:27:20.124Z,1.55
2023-10-31T08:29:47.459Z,0.90
2023-10-31T08:32:14.803Z,0.90
2023-10-31T08:34:42.158Z,1.00
2023-10-31T08:37:09.320Z,1.08
2023-10-31T08:39:36.477Z,0.98
2023-10-31T08:42:03.867Z,0.80
2023-10-31T08:44:31.042Z,0.80
2023-10-31T08:46:58.618Z,1.08
2023-10-31T08:49:25.819Z,1.60
2023-10-31T08:51:53.001Z,0.90
2023-10-31T08:54:20.451Z,0.70
2023-10-31T08:56:47.686Z,1.13
2023-10-31T08:59:15.115Z,0.80
2023-10-31T09:01:42.316Z,1.52
2023-10-31T09:04:09.559Z,0.77
2023-10-31T09:06:36.698Z,1.73
2023-10-31T09:09:05.190Z,1.35
2023-10-31T09:11:32.423Z,1.00
2023-10-31T09:13:59.694Z,1.10
2023-10-31T09:16:26.865Z,1.23
2023-10-31T09:18:54.116Z,1.23
2023-10-31T09:21:21.265Z,1.13
2023-10-31T09:23:48.553Z,1.35
2023-10-31T09:26:15.811Z,1.15
2023-10-31T09:28:50.830Z,1.35
2023-10-31T09:31:21.118Z,1.30
2023-10-31T09:33:48.489Z,1.27
2023-10-31T09:36:15.847Z,1.80
2023-10-31T09:38:43.190Z,0.90
2023-10-31T09:41:10.541Z,1.05
2023-10-31T09:43:38.338Z,1.30
2023-10-31T09:46:06.831Z,1.30
2023-10-31T09:48:34.884Z,1.55
2023-10-31T09:51:03.199Z,2.38
2023-10-31T09:53:33.277Z,1.60
2023-10-31T09:56:00.626Z,2.30
2023-10-31T09:58:27.845Z,2.70
2023-10-31T10:00:55.074Z,2.50
2023-10-31T10:03:23.979Z,1.83
2023-10-31T10:05:51.355Z,2.05
2023-10-31T10:08:18.626Z,2.53
2023-10-31T10:10:45.981Z,3.03
2023-10-31T10:13:14.043Z,3.10
2023-10-31T10:15:50.559Z,2.47
2023-10-31T10:18:27.353Z,2.70
2023-10-31T10:21:02.480Z,2.25
2023-10-31T10:23:30.950Z,2.78
2023-10-31T10:26:01.474Z,2.75
2023-10-31T10:28:30.819Z,2.60
2023-10-31T10:30:58.276Z,2.72
2023-10-31T10:33:25.573Z,2.25
2023-10-31T10:35:53.120Z,2.22
2023-10-31T10:38:20.734Z,2.45
2023-10-31T10:40:50.385Z,2.20
2023-10-31T10:43:26.215Z,2.88
2023-10-31T10:46:00.789Z,2.58
2023-10-31T10:48:29.165Z,2.40
2023-10-31T10:51:12.997Z,2.42
2023-10-31T10:53:52.380Z,2.22
2023-10-31T10:56:39.022Z,1.98
2023-10-31T10:59:19.831Z,1.83
2023-10-31T11:01:49.987Z,2.30
2023-10-31T11:04:18.613Z,2.25
2023-10-31T11:06:46.493Z,2.47
2023-10-31T11:09:15.232Z,2.10
2023-10-31T11:11:42.907Z,1.77
2023-10-31T11:14:11.318Z,1.85
2023-10-31T11:16:50.260Z,1.27
2023-10-31T11:19:18.399Z,2.05
2023-10-31T11:22:15.160Z,1.50
2023-10-31T11:24:43.489Z,2.00
2023-10-31T11:27:11.106Z,1.33
2023-10-31T11:29:38.822Z,1.30
2023-10-31T11:32:10.517Z,1.30
2023-10-31T11:34:42.769Z,2.13
2023-10-31T11:40:18.945Z,1.00
2023-10-31T11:42:51.605Z,1.40
2023-10-31T11:45:38.880Z,1.40
2023-10-31T11:48:06.659Z,1.02
2023-10-31T11:50:35.000Z,1.60
2023-10-31T11:53:13.672Z,1.42
2023-10-31T11:55:43.512Z,1.52
2023-10-31T11:58:24.469Z,1.60
2023-10-31T12:00:53.637Z,1.73
2023-10-31T12:03:22.595Z,1.25
2023-10-31T12:05:57.614Z,1.48
2023-10-31T12:08:45.149Z,1.25
2023-10-31T12:11:12.625Z,1.48
2023-10-31T12:13:41.847Z,1.42
2023-10-31T12:16:10.989Z,1.60
2023-10-31T12:18:41.698Z,1.38
2023-10-31T12:21:10.195Z,1.30
2023-10-31T12:23:37.601Z,1.20
2023-10-31T12:26:05.184Z,1.35
2023-10-31T12:28:32.546Z,1.50
2023-10-31T12:31:00.186Z,1.25
2023-10-31T12:33:28.414Z,1.98
2023-10-31T12:36:02.228Z,1.02
2023-10-31T12:38:30.417Z,1.40
2023-10-31T12:40:58.546Z,1.52
2023-10-31T12:43:27.072Z,1.52
2023-10-31T12:45:54.392Z,1.70
2023-10-31T12:48:26.266Z,1.30
2023-10-31T12:51:09.681Z,1.20
2023-10-31T12:53:36.991Z,1.60
2023-10-31T12:56:04.633Z,1.45
2023-10-31T12:58:32.023Z,1.48
2023-10-31T13:01:00.489Z,0.90
2023-10-31T13:03:27.871Z,1.40
2023-10-31T13:05:56.121Z,0.90
2023-10-31T13:08:23.939Z,0.82
2023-10-31T13:10:51.150Z,0.60
2023-10-31T13:13:18.373Z,0.77
2023-10-31T13:15:45.560Z,0.50
2023-10-31T13:18:12.882Z,0.50
2023-10-31T13:20:40.142Z,0.43
2023-10-31T13:23:08.434Z,1.00
2023-10-31T13:25:35.635Z,1.08
2023-10-31T13:28:03.451Z,1.33
2023-10-31T13:30:30.755Z,1.00
2023-10-31T13:32:58.776Z,1.13
2023-10-31T13:35:26.237Z,1.65
2023-10-31T13:37:53.530Z,1.50
2023-10-31T13:40:20.807Z,1.13
2023-10-31T13:42:48.180Z,0.60
2023-10-31T13:45:15.348Z,0.52
2023-10-31T13:47:42.637Z,0.90
2023-10-31T13:50:10.113Z,0.90
2023-10-31T13:52:39.097Z,0.90
2023-10-31T13:55:06.692Z,0.90
2023-10-31T13:57:34.145Z,1.95
2023-10-31T14:00:01.771Z,1.20
2023-10-31T14:02:30.041Z,1.50
2023-10-31T14:04:57.980Z,1.23
2023-10-31T14:07:25.415Z,1.20
2023-10-31T14:09:54.102Z,0.88
2023-10-31T14:12:21.389Z,0.60
2023-10-31T14:14:50.108Z,0.90
2023-10-31T14:17:18.111Z,0.60
2023-10-31T14:19:45.708Z,1.10
2023-10-31T14:22:15.268Z,0.93
2023-10-31T14:24:42.507Z,0.60
2023-10-31T14:27:09.807Z,0.80
2023-10-31T14:29:37.205Z,0.90
2023-10-31T14:32:08.851Z,0.60
2023-10-31T14:34:36.775Z,0.75
2023-10-31T14:37:04.170Z,0.93
2023-10-31T14:39:31.400Z,0.93
2023-10-31T14:41:58.909Z,0.65
2023-10-31T14:44:26.093Z,1.00
2023-10-31T14:46:54.722Z,1.25
2023-10-31T14:49:22.142Z,1.15
2023-10-31T14:51:49.356Z,1.15
2023-10-31T14:54:16.560Z,1.42
2023-10-31T14:56:43.853Z,1.08
2023-10-31T14:59:11.153Z,0.93
2023-10-31T15:01:38.449Z,1.23
2023-10-31T15:04:06.095Z,0.93
2023-10-31T15:06:33.265Z,0.98
2023-10-31T15:09:00.869Z,1.38
2023-10-31T15:11:28.199Z,1.15
2023-10-31T15:13:55.630Z,1.00
2023-10-31T15:16:22.874Z,0.95
2023-10-31T15:18:50.134Z,1.55
2023-10-31T15:21:17.391Z,1.92
2023-10-31T15:23:44.521Z,2.28
2023-10-31T15:26:14.675Z,2.50
2023-10-31T15:28:46.115Z,1.45
2023-10-31T15:31:14.466Z,0.82
2023-10-31T15:33:44.412Z,0.70
2023-10-31T15:36:13.191Z,0.80
2023-10-31T15:38:41.334Z,0.93
2023-10-31T15:41:17.181Z,0.50
2023-10-31T15:43:46.531Z,0.60
2023-10-31T15:46:14.408Z,0.68
2023-10-31T15:48:42.364Z,1.23
2023-10-31T15:51:09.798Z,0.80
2023-10-31T15:53:37.105Z,0.60
2023-10-31T15:56:09.016Z,0.63
2023-10-31T15:58:37.292Z,0.55
2023-10-31T16:01:05.000Z,0.52
2023-10-31T16:03:32.561Z,0.55
2023-10-31T16:06:00.218Z,1.15
2023-10-31T16:08:27.426Z,0.80
2023-10-31T16:10:55.816Z,1.08
2023-10-31T16:13:23.037Z,1.45
2023-10-31T16:15:51.140Z,1.35
2023-10-31T16:18:18.433Z,1.30
2023-10-31T16:20:48.149Z,1.45
2023-10-31T16:23:21.497Z,1.30
2023-10-31T16:25:48.864Z,1.88
2023-10-31T16:28:16.129Z,1.77
2023-10-31T16:30:43.422Z,1.73
2023-10-31T16:33:10.721Z,1.33
2023-10-31T16:35:38.116Z,1.20
2023-10-31T16:38:05.601Z,1.50
2023-10-31T16:40:33.488Z,1.73
2023-10-31T16:43:00.856Z,1.90
2023-10-31T16:45:28.069Z,1.75
2023-10-31T16:47:55.285Z,1.73
2023-10-31T16:50:22.643Z,1.77
2023-10-31T16:52:49.855Z,1.30
2023-10-31T16:55:17.040Z,2.30
2023-10-31T16:57:44.192Z,1.98
2023-10-31T17:00:11.771Z,2.03
2023-10-31T17:02:39.177Z,1.88
2023-10-31T17:05:06.685Z,2.55
2023-10-31T17:07:34.287Z,2.00
2023-10-31T17:10:01.619Z,2.40
2023-10-31T17:12:28.778Z,1.63
2023-10-31T17:14:56.034Z,2.35
2023-10-31T17:17:23.686Z,2.10
2023-10-31T17:19:51.190Z,1.98
2023-10-31T17:22:18.409Z,1.73
2023-10-31T17:24:48.081Z,1.88
2023-10-31T17:27:17.125Z,1.95
2023-10-31T17:29:45.348Z,2.05
2023-10-31T17:32:17.298Z,2.83
2023-10-31T17:34:50.111Z,2.03
2023-10-31T17:37:17.634Z,1.92
2023-10-31T17:39:44.904Z,1.63
2023-10-31T17:42:12.056Z,2.58
2023-10-31T17:44:39.359Z,2.17
2023-10-31T17:47:07.094Z,2.30
2023-10-31T17:49:34.275Z,2.33
2023-10-31T17:52:03.085Z,3.10
2023-10-31T17:54:35.016Z,2.13
2023-10-31T17:57:02.815Z,1.95
2023-10-31T17:59:30.460Z,2.50
2023-10-31T18:01:58.066Z,1.77
2023-10-31T18:04:25.470Z,1.30
2023-10-31T18:06:52.657Z,1.73
2023-10-31T18:09:19.932Z,1.58
2023-10-31T18:11:47.340Z,1.67
2023-10-31T18:14:14.520Z,2.20
2023-10-31T18:16:41.956Z,2.63
2023-10-31T18:19:09.770Z,1.77
2023-10-31T18:21:36.953Z,2.65
2023-10-31T18:24:05.430Z,2.60
2023-10-31T18:26:32.883Z,3.38
2023-10-31T18:29:00.187Z,3.30
2023-10-31T18:31:27.603Z,2.72
2023-10-31T18:33:54.952Z,3.33
2023-10-31T18:36:31.252Z,2.50
2023-10-31T18:39:04.953Z,2.45
2023-10-31T18:41:33.593Z,2.70
2023-10-31T18:44:16.893Z,3.10
2023-10-31T18:46:49.652Z,2.67
2023-10-31T18:49:16.880Z,2.30
2023-10-31T18:51:44.318Z,2.30
2023-10-31T18:54:12.365Z,2.53
2023-10-31T18:56:39.630Z,2.05
2023-10-31T18:59:07.443Z,2.60
2023-10-31T19:01:34.984Z,3.15
2023-10-31T19:04:02.578Z,2.28
2023-10-31T19:06:29.805Z,2.47
2023-10-31T19:08:57.030Z,2.40
2023-10-31T19:11:24.236Z,1.92
2023-10-31T19:13:51.378Z,2.65
2023-10-31T19:16:18.561Z,2.75
2023-10-31T19:18:45.723Z,2.25
2023-10-31T19:21:12.962Z,2.50
2023-10-31T19:23:40.291Z,2.30
2023-10-31T19:26:07.675Z,2.67
2023-10-31T19:28:35.094Z,2.45
2023-10-31T19:31:02.436Z,2.97
2023-10-31T19:33:29.802Z,2.58
2023-10-31T19:35:57.045Z,2.05
2023-10-31T19:38:24.451Z,2.08
2023-10-31T19:40:51.918Z,2.00
2023-10-31T19:43:21.441Z,2.17
2023-10-31T19:45:48.696Z,1.92
2023-10-31T19:48:16.061Z,1.98
2023-10-31T19:50:43.675Z,2.88
2023-10-31T19:53:11.202Z,2.15
2023-10-31T19:55:38.476Z,2.03
2023-10-31T19:58:05.779Z,2.55
2023-10-31T20:00:33.030Z,2.00
2023-10-31T20:03:00.460Z,2.40
2023-10-31T20:05:27.719Z,2.15
2023-10-31T20:07:54.893Z,1.73
2023-10-31T20:10:22.116Z,2.15
2023-10-31T20:12:49.634Z,1.70
2023-10-31T20:15:17.035Z,2.00
2023-10-31T20:17:44.844Z,1.90
2023-10-31T20:20:13.110Z,1.70
2023-10-31T20:22:40.364Z,2.08
2023-10-31T20:25:07.869Z,1.90
2023-10-31T20:27:35.135Z,2.13
2023-10-31T20:30:05.112Z,1.30
2023-10-31T20:32:34.290Z,1.70
2023-10-31T20:35:01.560Z,2.50
2023-10-31T20:37:29.029Z,1.88
2023-10-31T20:39:56.322Z,1.23
2023-10-31T20:42:23.856Z,1.77
2023-10-31T20:44:51.017Z,2.17
2023-10-31T20:47:18.190Z,1.70
2023-10-31T20:49:45.656Z,1.05
2023-10-31T20:52:14.312Z,1.65
2023-10-31T20:54:41.597Z,1.20
2023-10-31T20:57:08.810Z,1.00
2023-10-31T20:59:36.042Z,1.33
2023-10-31T21:02:04.303Z,1.60
2023-10-31T21:04:33.301Z,1.08
2023-10-31T21:07:00.621Z,0.90
2023-10-31T21:09:27.810Z,1.08
2023-10-31T21:11:56.107Z,1.23
2023-10-31T21:14:23.487Z,1.38
2023-10-31T21:16:50.792Z,1.40
2023-10-31T21:19:24.766Z,2.05
2023-10-31T21:21:58.661Z,1.20
2023-10-31T21:24:26.209Z,1.60
2023-10-31T21:26:53.541Z,1.40
2023-10-31T21:29:20.722Z,1.75
2023-10-31T21:31:47.926Z,1.20
2023-10-31T21:34:16.442Z,1.38
2023-10-31T21:36:43.919Z,1.20
2023-10-31T21:39:11.113Z,1.10
2023-10-31T21:41:38.339Z,1.73
2023-10-31T21:44:05.870Z,1.00
2023-10-31T21:46:33.139Z,1.13
2023-10-31T21:49:00.405Z,1.58
2023-10-31T21:51:27.648Z,1.35
2023-10-31T21:53:55.270Z,1.38
2023-10-31T21:56:22.580Z,1.30
2023-10-31T21:58:49.807Z,1.25
2023-10-31T22:01:17.156Z,1.40
2023-10-31T22:03:44.484Z,1.30
2023-10-31T22:06:12.903Z,1.27
2023-10-31T22:08:40.384Z,1.40
2023-10-31T22:11:07.671Z,0.90
2023-10-31T22:13:34.929Z,1.00
2023-10-31T22:16:02.227Z,0.50
2023-10-31T22:18:29.587Z,0.47
2023-10-31T22:20:56.822Z,0.85
2023-10-31T22:23:24.525Z,0.98
2023-10-31T22:25:52.036Z,1.00
2023-10-31T22:28:19.253Z,0.95
2023-10-31T22:30:46.507Z,0.90
2023-10-31T22:33:14.349Z,0.70
2023-10-31T22:35:41.545Z,0.90
2023-10-31T22:38:08.750Z,0.70
2023-10-31T22:40:36.307Z,0.95
2023-10-31T22:43:03.622Z,0.70
2023-10-31T22:45:30.835Z,0.52
2023-10-31T22:47:58.448Z,1.40
2023-10-31T22:50:26.144Z,1.08
2023-10-31T22:52:53.465Z,0.70
2023-10-31T22:55:20.883Z,0.80
2023-10-31T22:57:48.165Z,0.57
2023-10-31T23:00:22.788Z,0.80
2023-10-31T23:02:50.232Z,0.77
2023-10-31T23:05:17.821Z,0.60
2023-10-31T23:07:45.130Z,0.40
2023-10-31T23:10:12.950Z,0.50
2023-10-31T23:12:40.461Z,0.63
2023-10-31T23:15:12.832Z,0.40
2023-10-31T23:17:42.290Z,0.40
2023-10-31T23:20:11.921Z,0.52
2023-10-31T23:22:41.995Z,0.40
2023-10-31T23:25:09.942Z,0.50
2023-10-31T23:27:39.676Z,0.52
2023-10-31T23:30:08.238Z,0.57
2023-10-31T23:32:36.110Z,0.77
2023-10-31T23:35:03.485Z,0.30
2023-10-31T23:37:30.950Z,0.57
2023-10-31T23:40:01.768Z,0.47
2023-10-31T23:42:29.095Z,0.93
2023-10-31T23:44:57.040Z,0.20
2023-10-31T23:47:25.099Z,0.20
2023-10-31T23:49:52.388Z,0.40
2023-10-31T23:52:19.559Z,0.40
2023-10-31T23:54:46.749Z,0.40
2023-10-31T23:57:13.983Z,0.28
2023-10-31T23:59:41.413Z,0.63
